Marionville, Missouri
Current Conditions -  °F | °C
As of 5:52 AM on Saturday 25 Oct 2014 (Local Time) from KSGF Reporting Station
Clear Clear  
Wind Chill: 18°   Ceiling: Unl
Heat Index: 18°   Visibility: 10mi
Dew Point: 15°   Wind: 9mph
Humidity: 84%   Direction: 250°WSW
Pressure: 30.05"   Gusts: NA
Location:  37°N, 93.64°W
Report Text: KSGF 251052Z 25008KT 10SM CLR 18/15 A3005 RMK AO2 SLP169 T01780150
Loading
Personal Weather Stations






























Interactive Weather Map
Tropical Storm Tracking
New forecast layout! Learn more

10-Day Weather Forecast

Advertisements
Track Severe Weather on mobile